logo
Search for airport 
image banner adimage banner adimage banner ad
image banner ad

MZPG - Punta Gorda Airstrip

Located in Punta Gorda, Belize

ICAO - , IATA - PND

Data provided by Airmate  

General information

Coordinates: N16°6'8" W88°48'29"
Elevation is 59 feet MSL.
 
View others Airports in Toledo District

Operational data

Special qualification required
Current time UTC:
Current local time:
Weather at : MGPB - Puerto Barrios ( 48 km )
METAR: MGPB 220800Z 00000KT 9999 FEW016 26/25 Q1011 A2985
TAF: MGPB 220500Z 2206/2306 00000KT 9999 SCT016 TX33/2220Z TN23/2212Z PROB40 TEMPO 2206/2220 8000 TSRA FEW025CB BECMG 2216/2218 06008KT SCT018 BECMG 2300/2302 00000KT SCT016
View NOTAMs / SUP AIP / TFR affecting this airport [VIEW]
Communications frequencies: [VIEW]

Runways:

RWY identifierQFULength (ft)Width (ft)SurfaceLDA (ft)
06245126UNK
24245126UNK

Airport contact information

Address: Punta Gorda Belize

Satellite view of MZPG